Time;durP1;ratioP1;P1;durP2;ratioP2;P2;SDS_P1;SDS_P2;PMS_P1;PMS_P2;Temp;Humidity;BMP_temperature;BMP_pressure;BME280_temperature;BME280_humidity;BME280_pressure;Samples;Min_cycle;Max_cycle;Signal;HPM_P1;HPM_P2
2023/03/27 00:00:52;;;;;;;9.93;1.80;;;;;;;;;;5019971;28;20057;-61
2023/03/27 00:03:19;;;;;;;10.23;1.98;;;;;;;;;;5044411;28;20448;-61
2023/03/27 00:05:44;;;;;;;10.57;1.88;;;;;;;;;;5026947;28;20049;-63
2023/03/27 00:08:12;;;;;;;8.77;2.20;;;;;;;;;;5018715;28;20402;-62
2023/03/27 00:10:38;;;;;;;12.98;1.90;;;;;;;;;;5022179;28;20029;-62
2023/03/27 00:13:04;;;;;;;7.32;2.05;;;;;;;;;;5012634;28;20026;-62
2023/03/27 00:15:31;;;;;;;10.40;2.17;;;;;;;;;;5023147;28;20033;-62
2023/03/27 00:17:57;;;;;;;10.15;2.00;;;;;;;;;;5025827;28;20445;-62
2023/03/27 00:20:24;;;;;;;10.55;2.22;;;;;;;;;;5020581;28;20080;-62
2023/03/27 00:22:55;;;;;;;10.43;1.95;;;;;;;;;;5017351;28;20529;-63
2023/03/27 00:25:26;;;;;;;11.68;2.53;;;;;;;;;;5015694;28;20520;-61
2023/03/27 00:27:53;;;;;;;10.65;2.65;;;;;;;;;;5021586;28;20038;-61
2023/03/27 00:30:19;;;;;;;8.63;2.20;;;;;;;;;;5018814;28;20430;-61
2023/03/27 00:32:45;;;;;;;11.82;2.20;;;;;;;;;;5016113;28;20495;-61
2023/03/27 00:35:12;;;;;;;10.30;2.40;;;;;;;;;;5022681;28;20083;-61
2023/03/27 00:37:38;;;;;;;13.32;2.60;;;;;;;;;;5025394;28;20168;-61
2023/03/27 00:40:06;;;;;;;11.90;1.92;;;;;;;;;;5018693;28;20485;-62
2023/03/27 00:42:33;;;;;;;7.70;1.88;;;;;;;;;;5010818;28;20029;-60
2023/03/27 00:44:58;;;;;;;7.53;2.20;;;;;;;;;;5030984;28;20037;-60
2023/03/27 00:47:32;;;;;;;9.00;2.35;;;;;;;;;;5025148;28;20040;-62
2023/03/27 00:50:02;;;;;;;8.00;1.98;;;;;;;;;;5028746;28;20029;-62
2023/03/27 00:52:30;;;;;;;8.23;2.33;;;;;;;;;;5029097;28;20405;-62
2023/03/27 00:55:03;;;;;;;9.50;2.40;;;;;;;;;;5030056;28;20076;-62
2023/03/27 00:57:29;;;;;;;5.70;2.25;;;;;;;;;;5031176;28;20034;-62
2023/03/27 00:59:58;;;;;;;13.52;2.35;;;;;;;;;;5022456;28;20034;-61
2023/03/27 01:02:25;;;;;;;9.27;2.25;;;;;;;;;;5013855;28;20050;-62
2023/03/27 01:04:52;;;;;;;10.80;2.67;;;;;;;;;;5026193;28;20033;-61
2023/03/27 01:07:18;;;;;;;10.95;2.38;;;;;;;;;;5019025;28;20112;-61
2023/03/27 01:09:44;;;;;;;15.38;2.83;;;;;;;;;;5016683;28;20033;-61
2023/03/27 01:12:26;;;;;;;10.65;2.45;;;;;;;;;;5039727;28;20033;-61
2023/03/27 01:15:17;;;;;;;10.30;2.47;;;;;;;;;;5016242;28;20368;-61
2023/03/27 01:18:08;;;;;;;13.23;2.40;;;;;;;;;;5018329;28;20090;-61
2023/03/27 01:20:49;;;;;;;;;;;;;;;;;;5017326;28;20052;-59
2023/03/27 01:23:48;;;;;;;11.30;2.50;;;;;;;;;;5011753;28;19913;-62
2023/03/27 01:26:36;;;;;;;13.95;2.60;;;;;;;;;;5026902;28;20051;-61
2023/03/27 01:29:29;;;;;;;9.63;2.38;;;;;;;;;;5012310;28;20145;-61
2023/03/27 01:32:28;;;;;;;8.43;2.58;;;;;;;;;;5022407;28;20034;-61
2023/03/27 01:35:10;;;;;;;10.90;2.90;;;;;;;;;;5030302;28;20034;-63
2023/03/27 01:37:55;;;;;;;9.43;2.42;;;;;;;;;;5029135;28;20046;-61
2023/03/27 01:40:28;;;;;;;7.70;2.75;;;;;;;;;;5011523;28;20022;-61
2023/03/27 01:43:04;;;;;;;14.23;2.22;;;;;;;;;;5017744;28;20075;-61
2023/03/27 01:45:38;;;;;;;9.88;3.35;;;;;;;;;;5023138;28;20501;-62
2023/03/27 01:48:04;;;;;;;8.40;2.20;;;;;;;;;;5025022;28;20042;-62
2023/03/27 01:50:34;;;;;;;11.55;2.75;;;;;;;;;;5017911;28;20430;-61
2023/03/27 01:53:10;;;;;;;15.60;2.72;;;;;;;;;;5014786;28;20088;-62
2023/03/27 01:55:40;;;;;;;6.57;2.20;;;;;;;;;;5010923;28;20402;-62
2023/03/27 01:58:12;;;;;;;5.53;2.20;;;;;;;;;;5037305;28;20467;-62
2023/03/27 02:00:41;;;;;;;8.20;2.30;;;;;;;;;;5032354;28;20088;-62
2023/03/27 02:03:15;;;;;;;8.48;2.40;;;;;;;;;;5026244;28;20374;-61
2023/03/27 02:05:50;;;;;;;11.90;2.85;;;;;;;;;;5012167;28;20049;-61
2023/03/27 02:08:25;;;;;;;7.00;1.98;;;;;;;;;;5020567;28;20034;-62
2023/03/27 02:10:55;;;;;;;11.45;2.20;;;;;;;;;;5015811;28;20360;-62
2023/03/27 02:13:30;;;;;;;13.02;2.40;;;;;;;;;;5014884;28;20030;-61
2023/03/27 02:15:58;;;;;;;10.73;2.28;;;;;;;;;;5011084;28;20045;-61
2023/03/27 02:18:35;;;;;;;8.95;2.40;;;;;;;;;;5026340;28;20033;-61
2023/03/27 02:21:01;;;;;;;10.57;2.45;;;;;;;;;;5015118;28;20030;-60
2023/03/27 02:23:29;;;;;;;10.55;2.30;;;;;;;;;;5014489;28;20030;-60
2023/03/27 02:25:56;;;;;;;6.93;2.40;;;;;;;;;;5029109;28;20041;-60
2023/03/27 02:28:33;;;;;;;8.73;2.28;;;;;;;;;;5037035;28;20517;-61
2023/03/27 02:31:12;;;;;;;8.10;2.58;;;;;;;;;;5023311;28;20056;-61
2023/03/27 02:34:02;;;;;;;7.47;2.67;;;;;;;;;;5019880;28;20037;-60
2023/03/27 02:36:53;;;;;;;8.93;2.72;;;;;;;;;;5019997;28;20065;-61
2023/03/27 02:39:26;;;;;;;7.63;2.50;;;;;;;;;;5013559;28;20122;-61
2023/03/27 02:42:07;;;;;;;7.45;2.47;;;;;;;;;;5030372;28;20052;-62
2023/03/27 02:44:41;;;;;;;9.40;2.17;;;;;;;;;;5020975;28;20037;-61
2023/03/27 02:47:23;;;;;;;8.77;2.30;;;;;;;;;;5016381;28;20270;-62
2023/03/27 02:49:58;;;;;;;9.55;2.70;;;;;;;;;;5013238;28;20025;-62
2023/03/27 02:52:33;;;;;;;7.00;2.13;;;;;;;;;;5024541;28;20556;-62
2023/03/27 02:55:09;;;;;;;10.13;2.50;;;;;;;;;;5018293;28;20034;-61
2023/03/27 02:57:37;;;;;;;7.75;2.55;;;;;;;;;;5019120;28;20038;-61
2023/03/27 03:00:24;;;;;;;7.03;2.13;;;;;;;;;;5013607;28;20061;-61
2023/03/27 03:02:53;;;;;;;9.80;2.42;;;;;;;;;;5029957;28;20042;-61
2023/03/27 03:05:21;;;;;;;8.90;2.33;;;;;;;;;;5030768;28;20057;-61
2023/03/27 03:07:47;;;;;;;12.73;2.42;;;;;;;;;;5027485;28;20039;-61
2023/03/27 03:10:14;;;;;;;6.72;2.05;;;;;;;;;;5018923;28;20459;-61
2023/03/27 03:12:40;;;;;;;9.20;2.10;;;;;;;;;;5027476;28;20113;-61
2023/03/27 03:15:09;;;;;;;11.23;2.90;;;;;;;;;;5013996;28;20128;-61
2023/03/27 03:17:35;;;;;;;22.40;2.67;;;;;;;;;;5028264;28;20535;-61
2023/03/27 03:20:01;;;;;;;9.85;2.00;;;;;;;;;;5014774;28;20038;-62
2023/03/27 03:22:26;;;;;;;8.68;2.20;;;;;;;;;;5019794;28;20033;-62
2023/03/27 03:24:52;;;;;;;11.70;2.15;;;;;;;;;;5021539;28;20048;-62
2023/03/27 03:27:19;;;;;;;9.32;2.13;;;;;;;;;;5013353;28;20068;-63
2023/03/27 03:29:46;;;;;;;11.50;1.98;;;;;;;;;;5011679;28;20458;-62
2023/03/27 03:32:11;;;;;;;10.45;2.05;;;;;;;;;;5021955;28;20091;-62
2023/03/27 03:34:37;;;;;;;7.03;2.15;;;;;;;;;;5021011;28;20037;-61
2023/03/27 03:37:02;;;;;;;4.90;2.03;;;;;;;;;;5030366;28;20083;-62
2023/03/27 03:39:28;;;;;;;6.90;2.20;;;;;;;;;;5024142;28;20049;-62
2023/03/27 03:41:53;;;;;;;6.95;2.30;;;;;;;;;;5029994;28;20080;-62
2023/03/27 03:44:19;;;;;;;8.20;2.72;;;;;;;;;;5018736;28;20018;-63
2023/03/27 03:46:44;;;;;;;10.73;3.13;;;;;;;;;;5012788;28;20072;-62
2023/03/27 03:49:10;;;;;;;12.18;2.53;;;;;;;;;;5017921;28;20406;-62
2023/03/27 03:51:35;;;;;;;8.15;2.67;;;;;;;;;;5025527;28;20037;-62
2023/03/27 03:54:01;;;;;;;10.70;2.45;;;;;;;;;;5026943;28;20516;-62
2023/03/27 03:56:28;;;;;;;10.45;2.25;;;;;;;;;;5018502;28;20076;-63
2023/03/27 03:58:54;;;;;;;8.23;2.22;;;;;;;;;;5020088;28;20037;-61
2023/03/27 04:01:21;;;;;;;5.15;2.00;;;;;;;;;;5032883;28;20056;-62
2023/03/27 04:03:47;;;;;;;6.88;1.92;;;;;;;;;;5031618;28;20060;-61
2023/03/27 04:06:16;;;;;;;9.27;2.20;;;;;;;;;;5029597;28;20046;-61
2023/03/27 04:08:42;;;;;;;14.88;3.95;;;;;;;;;;5024600;28;20484;-62
2023/03/27 04:11:08;;;;;;;8.82;2.00;;;;;;;;;;5022640;28;20029;-61
2023/03/27 04:13:33;;;;;;;7.72;2.17;;;;;;;;;;5028716;28;20033;-61
2023/03/27 04:16:00;;;;;;;5.55;1.75;;;;;;;;;;5032492;28;20046;-63
2023/03/27 04:18:31;;;;;;;7.03;2.10;;;;;;;;;;5032188;28;20120;-61
2023/03/27 04:20:57;;;;;;;6.38;1.73;;;;;;;;;;5016517;28;20052;-62
2023/03/27 04:23:29;;;;;;;9.38;2.33;;;;;;;;;;5021116;28;20120;-62
2023/03/27 04:26:00;;;;;;;6.93;1.95;;;;;;;;;;5018766;28;20025;-61
2023/03/27 04:28:29;;;;;;;8.25;2.10;;;;;;;;;;5029429;28;20123;-61
2023/03/27 04:30:55;;;;;;;5.93;1.95;;;;;;;;;;5033847;28;20029;-61
2023/03/27 04:33:21;;;;;;;8.88;2.22;;;;;;;;;;5030284;28;20033;-61
2023/03/27 04:35:49;;;;;;;8.65;2.00;;;;;;;;;;5022548;28;20033;-61
2023/03/27 04:38:15;;;;;;;9.07;2.10;;;;;;;;;;5020337;28;20041;-61
2023/03/27 04:40:44;;;;;;;11.30;2.10;;;;;;;;;;5011968;28;20029;-61
2023/03/27 04:43:11;;;;;;;7.53;2.05;;;;;;;;;;5016815;28;20489;-61
2023/03/27 04:45:37;;;;;;;7.50;2.10;;;;;;;;;;5029106;28;20069;-61
2023/03/27 04:48:04;;;;;;;8.15;2.20;;;;;;;;;;5031217;28;20104;-61
2023/03/27 04:50:29;;;;;;;7.28;2.05;;;;;;;;;;5022565;28;20500;-62
2023/03/27 04:52:58;;;;;;;13.70;2.83;;;;;;;;;;5011356;28;20038;-62
2023/03/27 04:55:25;;;;;;;11.32;2.35;;;;;;;;;;5015139;28;20445;-60
2023/03/27 04:57:51;;;;;;;9.20;2.20;;;;;;;;;;5026083;28;20037;-62
2023/03/27 05:00:18;;;;;;;5.18;1.95;;;;;;;;;;5029046;28;20475;-62
2023/03/27 05:02:47;;;;;;;13.98;2.40;;;;;;;;;;5010551;28;20076;-61
2023/03/27 05:05:13;;;;;;;7.65;2.33;;;;;;;;;;5012091;28;20056;-61
2023/03/27 05:07:43;;;;;;;10.00;2.28;;;;;;;;;;5015031;28;20041;-61
2023/03/27 05:10:09;;;;;;;6.97;2.30;;;;;;;;;;5013708;28;20026;-61
2023/03/27 05:12:34;;;;;;;10.70;2.50;;;;;;;;;;5011232;28;20136;-62
2023/03/27 05:15:02;;;;;;;13.60;2.45;;;;;;;;;;5023518;28;20019;-62
2023/03/27 05:17:28;;;;;;;6.10;2.10;;;;;;;;;;5021497;28;20037;-60
2023/03/27 05:19:53;;;;;;;5.68;1.80;;;;;;;;;;5038206;28;20215;-60
2023/03/27 05:22:19;;;;;;;11.90;2.55;;;;;;;;;;5049999;28;20079;-61
2023/03/27 05:24:44;;;;;;;8.55;2.40;;;;;;;;;;5029630;28;20060;-60
2023/03/27 05:27:09;;;;;;;7.97;2.38;;;;;;;;;;5030573;28;20029;-63
2023/03/27 05:29:35;;;;;;;6.20;1.90;;;;;;;;;;5016302;28;20030;-63
2023/03/27 05:32:01;;;;;;;7.00;2.05;;;;;;;;;;5030923;28;20112;-62
2023/03/27 05:34:27;;;;;;;9.85;2.63;;;;;;;;;;5043163;28;20068;-64
2023/03/27 05:36:53;;;;;;;5.25;2.08;;;;;;;;;;5042078;28;20040;-64
2023/03/27 05:39:19;;;;;;;6.18;2.47;;;;;;;;;;5030827;28;20036;-63
2023/03/27 05:41:44;;;;;;;8.02;2.28;;;;;;;;;;5030311;28;20034;-63
2023/03/27 05:44:10;;;;;;;7.82;2.13;;;;;;;;;;5031246;28;20028;-64
2023/03/27 05:46:35;;;;;;;7.70;2.03;;;;;;;;;;5029783;28;20033;-63
2023/03/27 05:49:01;;;;;;;6.85;2.00;;;;;;;;;;5050259;28;20189;-65
2023/03/27 05:51:28;;;;;;;7.28;1.92;;;;;;;;;;5031434;28;20033;-65
2023/03/27 05:53:53;;;;;;;6.35;2.17;;;;;;;;;;5049699;28;20024;-64
2023/03/27 05:56:19;;;;;;;9.75;2.00;;;;;;;;;;5046804;28;20071;-63
2023/03/27 05:58:44;;;;;;;5.97;1.75;;;;;;;;;;5041554;28;20042;-64
2023/03/27 06:01:10;;;;;;;7.78;2.50;;;;;;;;;;5027379;28;20064;-64
2023/03/27 06:03:37;;;;;;;6.85;2.10;;;;;;;;;;5019046;28;20065;-63
2023/03/27 06:06:10;;;;;;;6.80;1.90;;;;;;;;;;5025411;28;20041;-63
2023/03/27 06:08:36;;;;;;;8.48;1.92;;;;;;;;;;5026824;28;20125;-63
2023/03/27 06:11:09;;;;;;;7.93;1.67;;;;;;;;;;5041748;28;20102;-64
2023/03/27 06:13:35;;;;;;;6.30;1.80;;;;;;;;;;5030946;28;20112;-62
2023/03/27 06:16:00;;;;;;;7.85;2.35;;;;;;;;;;5036023;28;20072;-62
2023/03/27 06:18:26;;;;;;;4.10;1.85;;;;;;;;;;5036160;28;20065;-63
2023/03/27 06:20:51;;;;;;;10.18;2.60;;;;;;;;;;5035316;28;20045;-63
2023/03/27 06:23:17;;;;;;;6.03;2.28;;;;;;;;;;5036205;28;20107;-62
2023/03/27 06:25:43;;;;;;;7.15;2.20;;;;;;;;;;5037832;28;20032;-64
2023/03/27 06:28:09;;;;;;;6.45;2.30;;;;;;;;;;5039530;28;20036;-64
2023/03/27 06:30:38;;;;;;;8.00;2.13;;;;;;;;;;5040536;28;20048;-63
2023/03/27 06:33:06;;;;;;;4.07;1.90;;;;;;;;;;5035825;28;20056;-62
2023/03/27 06:35:32;;;;;;;5.30;2.28;;;;;;;;;;5053797;28;20044;-63
2023/03/27 06:37:59;;;;;;;8.60;1.90;;;;;;;;;;5040416;28;20064;-64
2023/03/27 06:40:26;;;;;;;5.00;1.83;;;;;;;;;;5034612;28;20466;-62
2023/03/27 06:42:56;;;;;;;8.90;1.85;;;;;;;;;;5033298;28;20540;-63
2023/03/27 06:45:23;;;;;;;13.20;2.30;;;;;;;;;;5048740;28;20028;-62
2023/03/27 06:47:54;;;;;;;8.13;2.35;;;;;;;;;;5043785;28;20029;-63
2023/03/27 06:50:19;;;;;;;;;;;;;;;;;;5032810;28;20036;-62
2023/03/27 06:52:47;;;;;;;7.88;1.95;;;;;;;;;;5036843;28;20342;-63
2023/03/27 06:55:14;;;;;;;7.55;1.60;;;;;;;;;;5020688;28;20475;-66
2023/03/27 06:57:48;;;;;;;5.95;2.40;;;;;;;;;;5025600;28;20108;-64
2023/03/27 07:00:18;;;;;;;6.22;2.17;;;;;;;;;;5034883;28;20466;-63
2023/03/27 07:02:45;;;;;;;8.17;2.10;;;;;;;;;;5031820;28;20041;-64
2023/03/27 07:05:10;;;;;;;8.38;2.08;;;;;;;;;;5033490;28;20056;-64
2023/03/27 07:07:36;;;;;;;6.35;2.13;;;;;;;;;;5031232;28;20037;-65
2023/03/27 07:10:01;;;;;;;6.95;1.80;;;;;;;;;;5033194;28;20035;-63
2023/03/27 07:12:26;;;;;;;9.10;2.33;;;;;;;;;;5032263;28;20061;-63
2023/03/27 07:14:52;;;;;;;7.75;2.03;;;;;;;;;;5032870;28;20069;-64
2023/03/27 07:17:17;;;;;;;3.35;1.63;;;;;;;;;;5030136;28;20035;-64
2023/03/27 07:19:43;;;;;;;6.18;1.67;;;;;;;;;;5037922;28;20034;-64
2023/03/27 07:22:08;;;;;;;6.80;1.70;;;;;;;;;;5017861;28;20107;-64
2023/03/27 07:24:33;;;;;;;6.63;1.67;;;;;;;;;;5033326;28;20129;-64
2023/03/27 07:26:59;;;;;;;6.43;1.75;;;;;;;;;;5032725;28;20025;-63
2023/03/27 07:29:24;;;;;;;9.18;1.88;;;;;;;;;;5027994;28;20029;-65
2023/03/27 07:31:50;;;;;;;4.32;1.40;;;;;;;;;;5024913;28;20033;-63
2023/03/27 07:34:15;;;;;;;4.63;1.30;;;;;;;;;;5033431;28;20441;-63
2023/03/27 07:36:40;;;;;;;3.88;1.70;;;;;;;;;;5033431;28;20083;-64
2023/03/27 07:39:07;;;;;;;3.00;1.33;;;;;;;;;;5023574;28;20033;-63
2023/03/27 07:41:33;;;;;;;7.05;1.77;;;;;;;;;;5013911;28;20030;-64
2023/03/27 07:43:58;;;;;;;5.43;1.27;;;;;;;;;;5030484;28;20042;-63
2023/03/27 07:46:25;;;;;;;8.48;1.65;;;;;;;;;;5033089;28;20042;-62
2023/03/27 07:48:50;;;;;;;9.52;1.60;;;;;;;;;;5032364;28;20068;-63
2023/03/27 07:51:19;;;;;;;3.70;1.33;;;;;;;;;;5033153;28;20065;-63
2023/03/27 07:53:44;;;;;;;3.53;1.25;;;;;;;;;;5034373;28;20466;-64
2023/03/27 07:56:10;;;;;;;3.03;1.20;;;;;;;;;;5031648;28;20473;-64
2023/03/27 07:58:35;;;;;;;3.20;1.33;;;;;;;;;;5027719;28;20080;-66
2023/03/27 08:01:02;;;;;;;3.80;1.55;;;;;;;;;;5032147;28;20029;-65
2023/03/27 08:03:29;;;;;;;5.05;1.52;;;;;;;;;;5033210;28;20393;-64
2023/03/27 08:05:57;;;;;;;4.95;1.25;;;;;;;;;;5031748;28;20045;-64
2023/03/27 08:08:23;;;;;;;5.43;1.58;;;;;;;;;;5048163;28;20041;-64
2023/03/27 08:10:49;;;;;;;4.75;1.50;;;;;;;;;;5030739;28;20047;-65
2023/03/27 08:13:15;;;;;;;4.30;1.27;;;;;;;;;;5032433;28;20056;-63
2023/03/27 08:15:41;;;;;;;5.32;1.33;;;;;;;;;;5031731;28;20382;-64
2023/03/27 08:18:07;;;;;;;4.80;1.50;;;;;;;;;;5031677;28;20147;-63
2023/03/27 08:20:33;;;;;;;6.13;1.50;;;;;;;;;;5032587;28;20038;-64
2023/03/27 08:22:59;;;;;;;4.50;1.58;;;;;;;;;;5031707;28;20044;-63
2023/03/27 08:25:28;;;;;;;5.28;1.60;;;;;;;;;;5029853;28;20033;-62
2023/03/27 08:27:54;;;;;;;3.92;1.40;;;;;;;;;;5029565;28;20030;-63
2023/03/27 08:30:22;;;;;;;8.70;1.60;;;;;;;;;;5036621;28;20036;-64
2023/03/27 08:32:47;;;;;;;5.13;1.58;;;;;;;;;;5033402;28;20032;-62
2023/03/27 08:35:13;;;;;;;3.95;1.20;;;;;;;;;;5045808;28;20029;-64
2023/03/27 08:37:40;;;;;;;4.55;1.10;;;;;;;;;;5036642;28;20093;-64
2023/03/27 08:40:12;;;;;;;4.80;1.65;;;;;;;;;;5051436;28;20119;-63
2023/03/27 08:42:41;;;;;;;4.28;1.30;;;;;;;;;;5045015;28;20083;-65
2023/03/27 08:45:40;;;;;;;8.77;1.48;;;;;;;;;;5031127;28;20871;-64
2023/03/27 08:48:15;;;;;;;2.35;1.02;;;;;;;;;;5033981;28;20028;-65
2023/03/27 08:50:50;;;;;;;4.22;1.30;;;;;;;;;;5031856;28;20083;-65
2023/03/27 08:53:43;;;;;;;4.70;1.55;;;;;;;;;;5039956;28;20029;-65
2023/03/27 08:56:19;;;;;;;2.72;1.00;;;;;;;;;;5032246;28;20185;-66
2023/03/27 08:58:45;;;;;;;5.32;1.42;;;;;;;;;;5039273;28;20029;-69
2023/03/27 09:01:20;;;;;;;7.10;1.40;;;;;;;;;;5032058;28;20026;-67
2023/03/27 09:04:16;;;;;;;11.02;1.95;;;;;;;;;;5041713;28;20069;-66
2023/03/27 09:07:10;;;;;;;3.42;1.35;;;;;;;;;;5051266;28;20477;-66
2023/03/27 09:09:49;;;;;;;5.15;1.77;;;;;;;;;;5032778;28;20040;-68
2023/03/27 09:12:38;;;;;;;4.63;1.50;;;;;;;;;;5040631;28;20489;-65
2023/03/27 09:15:08;;;;;;;4.78;1.40;;;;;;;;;;5011162;28;20038;-68
2023/03/27 09:17:37;;;;;;;6.88;1.52;;;;;;;;;;5033377;28;20029;-68
2023/03/27 09:20:16;;;;;;;4.53;1.58;;;;;;;;;;5030945;28;20022;-66
2023/03/27 09:22:55;;;;;;;5.43;1.48;;;;;;;;;;5038264;28;20061;-66
2023/03/27 09:25:27;;;;;;;2.72;1.10;;;;;;;;;;5031277;28;20096;-67
2023/03/27 09:27:52;;;;;;;5.97;1.40;;;;;;;;;;5042007;28;20078;-66
2023/03/27 09:30:25;;;;;;;6.00;1.83;;;;;;;;;;5031701;28;20030;-65
2023/03/27 09:32:54;;;;;;;2.08;1.10;;;;;;;;;;5038844;28;20034;-64
2023/03/27 09:35:20;;;;;;;4.97;1.30;;;;;;;;;;5031379;28;20048;-66
2023/03/27 09:37:49;;;;;;;5.22;1.30;;;;;;;;;;5039803;28;20105;-64
2023/03/27 09:40:29;;;;;;;6.55;1.50;;;;;;;;;;5026923;28;20029;-66
2023/03/27 09:42:54;;;;;;;2.97;1.20;;;;;;;;;;5025068;28;20029;-65
2023/03/27 09:45:20;;;;;;;4.38;1.25;;;;;;;;;;5030828;28;20402;-66
2023/03/27 09:48:02;;;;;;;4.35;1.40;;;;;;;;;;5029008;28;20103;-66
2023/03/27 09:50:41;;;;;;;1.80;1.00;;;;;;;;;;5030765;28;20375;-64
2023/03/27 09:53:06;;;;;;;5.47;1.48;;;;;;;;;;5030455;28;20053;-66
2023/03/27 09:55:33;;;;;;;4.53;1.20;;;;;;;;;;5032246;28;20073;-64
2023/03/27 09:58:23;;;;;;;7.43;1.42;;;;;;;;;;5015471;28;20057;-64
2023/03/27 10:01:06;;;;;;;3.10;0.90;;;;;;;;;;5031477;28;20156;-64
2023/03/27 10:03:37;;;;;;;6.20;1.20;;;;;;;;;;5030391;28;20120;-65
2023/03/27 10:06:08;;;;;;;4.10;1.30;;;;;;;;;;5029913;28;20056;-64
2023/03/27 10:08:41;;;;;;;;;;;;;;;;;;5030739;28;20466;-64
2023/03/27 10:11:12;;;;;;;2.55;1.15;;;;;;;;;;5015283;28;19979;-67
2023/03/27 10:13:45;;;;;;;2.00;0.98;;;;;;;;;;5022452;28;20029;-66
2023/03/27 10:16:10;;;;;;;7.43;1.55;;;;;;;;;;5014228;28;20112;-65
2023/03/27 10:18:42;;;;;;;4.18;1.25;;;;;;;;;;5025559;28;20117;-65
2023/03/27 10:21:15;;;;;;;3.80;1.17;;;;;;;;;;5014670;28;20041;-65
2023/03/27 10:23:44;;;;;;;4.95;1.35;;;;;;;;;;5025275;28;20037;-66
2023/03/27 10:26:15;;;;;;;2.58;1.15;;;;;;;;;;5028942;28;20036;-65
2023/03/27 10:28:47;;;;;;;5.03;1.17;;;;;;;;;;5038856;28;20485;-65
2023/03/27 10:31:28;;;;;;;4.05;1.10;;;;;;;;;;5030005;28;20032;-66
2023/03/27 10:33:55;;;;;;;3.13;0.90;;;;;;;;;;5030576;28;20029;-66
2023/03/27 10:36:21;;;;;;;3.45;1.35;;;;;;;;;;5037989;28;20123;-66
2023/03/27 10:38:55;;;;;;;4.05;1.10;;;;;;;;;;5046275;28;20454;-65
2023/03/27 10:41:22;;;;;;;4.38;0.98;;;;;;;;;;5048652;28;20040;-65
2023/03/27 10:43:48;;;;;;;1.88;1.00;;;;;;;;;;5047204;28;20088;-65
2023/03/27 10:46:18;;;;;;;5.88;1.20;;;;;;;;;;5026605;28;20040;-65
2023/03/27 10:49:11;;;;;;;1.48;1.00;;;;;;;;;;5034409;28;20546;-64
2023/03/27 10:51:37;;;;;;;5.75;1.10;;;;;;;;;;5034299;28;20037;-65
2023/03/27 10:54:17;;;;;;;3.60;1.20;;;;;;;;;;5032770;28;20033;-65
2023/03/27 10:56:50;;;;;;;3.08;1.00;;;;;;;;;;5046995;28;20419;-66
2023/03/27 10:59:26;;;;;;;2.65;0.90;;;;;;;;;;5042889;28;20267;-65
2023/03/27 11:02:01;;;;;;;4.78;1.08;;;;;;;;;;5032833;28;20121;-65
2023/03/27 11:04:52;;;;;;;5.20;1.10;;;;;;;;;;5033170;28;20120;-65
2023/03/27 11:07:21;;;;;;;;;;;;;;;;;;5032894;28;20037;-62
2023/03/27 11:10:11;;;;;;;3.08;1.00;;;;;;;;;;5033906;28;20018;-66
2023/03/27 11:12:41;;;;;;;3.50;1.00;;;;;;;;;;5013823;28;20037;-64
2023/03/27 11:15:37;;;;;;;1.70;0.77;;;;;;;;;;5036782;28;20041;-65
2023/03/27 11:18:25;;;;;;;3.00;0.90;;;;;;;;;;5034280;28;20040;-67
2023/03/27 11:21:15;;;;;;;2.80;1.27;;;;;;;;;;5013813;28;20474;-69
2023/03/27 11:23:53;;;;;;;2.88;1.10;;;;;;;;;;5017971;28;20022;-67
2023/03/27 11:26:22;;;;;;;2.72;1.00;;;;;;;;;;5012887;28;20041;-68
2023/03/27 11:28:56;;;;;;;4.55;1.17;;;;;;;;;;5021423;28;20397;-67
2023/03/27 11:31:33;;;;;;;3.85;1.40;;;;;;;;;;5033420;28;20067;-67
2023/03/27 11:34:05;;;;;;;2.55;1.10;;;;;;;;;;5031733;28;20025;-67
2023/03/27 11:36:42;;;;;;;3.88;1.05;;;;;;;;;;5014541;28;20029;-68
2023/03/27 11:39:29;;;;;;;2.50;0.77;;;;;;;;;;5020826;28;20040;-68
2023/03/27 11:42:01;;;;;;;2.88;1.15;;;;;;;;;;5033368;28;20037;-63
2023/03/27 11:44:29;;;;;;;2.92;0.98;;;;;;;;;;5027956;28;20393;-67
2023/03/27 11:47:13;;;;;;;1.75;0.88;;;;;;;;;;5033165;28;20042;-67
2023/03/27 11:50:05;;;;;;;2.83;0.80;;;;;;;;;;5032635;28;20036;-65
2023/03/27 11:52:58;;;;;;;3.40;0.90;;;;;;;;;;5046126;28;20043;-64
2023/03/27 11:55:34;;;;;;;2.38;0.90;;;;;;;;;;5034632;28;20040;-65
2023/03/27 11:58:31;;;;;;;2.53;0.95;;;;;;;;;;5020497;28;20035;-65
2023/03/27 12:01:11;;;;;;;3.28;0.95;;;;;;;;;;5039471;28;20033;-64
2023/03/27 12:04:01;;;;;;;3.33;0.80;;;;;;;;;;5035469;28;20033;-64
2023/03/27 12:06:34;;;;;;;2.40;0.82;;;;;;;;;;5047874;28;20055;-63
2023/03/27 12:09:09;;;;;;;2.13;1.10;;;;;;;;;;5015925;28;20122;-64
2023/03/27 12:11:41;;;;;;;1.75;1.00;;;;;;;;;;5021983;28;20033;-65
2023/03/27 12:14:30;;;;;;;2.80;1.05;;;;;;;;;;5031502;28;20053;-65
2023/03/27 12:17:17;;;;;;;0.88;0.80;;;;;;;;;;5033480;28;20058;-67
2023/03/27 12:20:00;;;;;;;0.88;0.80;;;;;;;;;;5022210;28;20083;-65
2023/03/27 12:22:55;;;;;;;4.70;1.27;;;;;;;;;;5034528;28;20064;-66
2023/03/27 12:25:40;;;;;;;1.58;0.75;;;;;;;;;;5033050;28;20041;-64
2023/03/27 12:28:34;;;;;;;1.05;0.80;;;;;;;;;;5030155;28;20029;-66
2023/03/27 12:31:26;;;;;;;1.48;1.00;;;;;;;;;;5031208;28;20100;-66
2023/03/27 12:34:04;;;;;;;4.45;1.10;;;;;;;;;;5027490;28;20113;-65
2023/03/27 12:36:43;;;;;;;5.07;0.80;;;;;;;;;;5039601;28;20039;-67
2023/03/27 12:39:18;;;;;;;3.92;1.00;;;;;;;;;;5031868;28;20021;-65
2023/03/27 12:41:45;;;;;;;3.63;1.20;;;;;;;;;;5046880;28;20115;-67
2023/03/27 12:44:13;;;;;;;3.33;1.30;;;;;;;;;;5047863;28;20051;-67
2023/03/27 12:46:40;;;;;;;1.75;1.10;;;;;;;;;;5036959;28;20182;-69
2023/03/27 12:49:12;;;;;;;1.35;1.00;;;;;;;;;;5020790;28;20842;-67
2023/03/27 12:51:52;;;;;;;2.25;1.00;;;;;;;;;;5047957;28;20037;-67
2023/03/27 12:54:18;;;;;;;2.75;1.30;;;;;;;;;;5039090;28;20033;-65
2023/03/27 12:56:48;;;;;;;2.03;1.30;;;;;;;;;;5048601;28;20033;-69
2023/03/27 12:59:26;;;;;;;3.22;1.25;;;;;;;;;;5043602;28;20454;-65
2023/03/27 13:01:52;;;;;;;3.03;1.20;;;;;;;;;;5030805;28;20047;-66
2023/03/27 13:04:42;;;;;;;2.45;1.23;;;;;;;;;;5034166;28;20033;-66
2023/03/27 13:07:43;;;;;;;4.20;1.40;;;;;;;;;;5049601;28;20051;-65
2023/03/27 13:10:30;;;;;;;3.97;1.48;;;;;;;;;;5027818;28;20509;-67
2023/03/27 13:12:56;;;;;;;1.80;1.10;;;;;;;;;;5029990;28;20033;-66
2023/03/27 13:15:28;;;;;;;2.10;1.10;;;;;;;;;;5030716;28;20112;-66
2023/03/27 13:17:59;;;;;;;1.60;0.93;;;;;;;;;;5030911;28;20405;-66
2023/03/27 13:21:17;;;;;;;1.25;0.90;;;;;;;;;;5028357;28;20128;-66
2023/03/27 13:24:37;;;;;;;6.45;1.10;;;;;;;;;;5046104;28;20044;-65
2023/03/27 13:27:23;;;;;;;2.92;0.90;;;;;;;;;;5026645;28;20052;-64
2023/03/27 13:29:56;;;;;;;2.47;1.00;;;;;;;;;;5029714;28;20046;-65
2023/03/27 13:32:39;;;;;;;2.72;1.00;;;;;;;;;;5030556;28;20588;-66
2023/03/27 13:35:08;;;;;;;2.13;0.80;;;;;;;;;;5035984;28;20026;-63
2023/03/27 13:37:34;;;;;;;2.33;1.00;;;;;;;;;;5032652;28;20117;-66
2023/03/27 13:40:06;;;;;;;0.90;0.70;;;;;;;;;;5031622;28;20056;-64
2023/03/27 13:42:43;;;;;;;1.27;0.90;;;;;;;;;;5028828;28;20037;-63
2023/03/27 13:45:26;;;;;;;1.95;0.75;;;;;;;;;;5021199;28;20083;-64
2023/03/27 13:48:16;;;;;;;3.70;0.90;;;;;;;;;;5036652;28;20051;-64
2023/03/27 13:51:13;;;;;;;2.78;0.98;;;;;;;;;;5038421;28;20033;-64
2023/03/27 13:53:49;;;;;;;1.95;1.00;;;;;;;;;;5026719;28;20083;-64
2023/03/27 13:56:53;;;;;;;2.47;0.93;;;;;;;;;;5040043;28;20033;-66
2023/03/27 13:59:43;;;;;;;1.52;0.82;;;;;;;;;;5028064;28;20057;-65
2023/03/27 14:02:41;;;;;;;2.60;0.90;;;;;;;;;;5028046;28;20060;-64
2023/03/27 14:05:15;;;;;;;3.13;1.30;;;;;;;;;;5024227;28;20049;-65
2023/03/27 14:08:08;;;;;;;4.43;1.00;;;;;;;;;;5029286;28;20064;-65
2023/03/27 14:10:42;;;;;;;3.85;1.30;;;;;;;;;;5031468;28;20044;-65
2023/03/27 14:13:22;;;;;;;2.45;1.10;;;;;;;;;;5039027;28;20454;-64
2023/03/27 14:16:26;;;;;;;2.63;1.10;;;;;;;;;;5040375;28;20036;-63
2023/03/27 14:19:25;;;;;;;2.30;1.17;;;;;;;;;;5047468;28;20029;-65
2023/03/27 14:22:03;;;;;;;1.60;0.93;;;;;;;;;;5024381;28;20038;-64
2023/03/27 14:24:37;;;;;;;4.05;0.80;;;;;;;;;;5024033;28;20049;-64
2023/03/27 14:27:04;;;;;;;2.45;1.17;;;;;;;;;;5031326;28;20026;-65
2023/03/27 14:29:31;;;;;;;3.28;0.95;;;;;;;;;;5032126;28;20037;-66
2023/03/27 14:32:04;;;;;;;2.38;0.80;;;;;;;;;;5033653;28;20025;-65
2023/03/27 14:34:33;;;;;;;2.03;1.00;;;;;;;;;;5034119;28;20080;-65
2023/03/27 14:37:00;;;;;;;4.57;1.23;;;;;;;;;;5021339;28;20030;-65
2023/03/27 14:39:27;;;;;;;3.72;1.10;;;;;;;;;;5026121;28;20112;-71
2023/03/27 14:42:00;;;;;;;3.42;1.20;;;;;;;;;;5034277;28;20084;-61
2023/03/27 14:44:30;;;;;;;3.28;1.13;;;;;;;;;;5031773;28;20036;-63
2023/03/27 14:47:07;;;;;;;2.75;1.20;;;;;;;;;;5033015;28;20117;-62
2023/03/27 14:49:43;;;;;;;3.15;1.15;;;;;;;;;;5031309;28;20142;-62
2023/03/27 14:52:16;;;;;;;3.50;1.17;;;;;;;;;;5013722;28;20044;-62
2023/03/27 14:54:43;;;;;;;2.90;1.08;;;;;;;;;;5017664;28;20565;-62
2023/03/27 14:57:12;;;;;;;5.55;1.38;;;;;;;;;;5034043;28;20117;-61
2023/03/27 14:59:41;;;;;;;2.85;1.20;;;;;;;;;;5053198;28;20033;-62
2023/03/27 15:02:21;;;;;;;2.55;1.10;;;;;;;;;;5032996;28;20104;-62
2023/03/27 15:04:47;;;;;;;2.63;1.20;;;;;;;;;;5039722;28;20065;-63
2023/03/27 15:07:19;;;;;;;2.45;0.90;;;;;;;;;;5036330;28;20297;-64
2023/03/27 15:09:58;;;;;;;2.53;1.33;;;;;;;;;;5035196;28;20037;-65
2023/03/27 15:12:23;;;;;;;3.53;1.00;;;;;;;;;;5051521;28;20041;-65
2023/03/27 15:14:51;;;;;;;1.17;0.88;;;;;;;;;;5044990;28;20053;-66